Matara, Argentina
Current Conditions -  °F | °C
As of 3:00 PM on Monday 20 Oct 2014 (Local Time) from SANT Reporting Station
Broken Clouds Broken Clouds  
Wind Chill: 25°   Ceiling: 3000
Heat Index: 26°   Visibility: 6mi
Dew Point: 17°   Wind: 3mph
Humidity: 61%   Direction: 320°NW
Pressure: 30.09"   Gusts: NA
Location:  28.2°S, 63.14°W
Report Text: SANT 201800Z 32003KT 9000 BKN030 SCT05025/17 Q1019
Loading
Personal Weather Stations






























Interactive Weather Map
Tropical Storm Tracking
New forecast layout! Learn more

10-Day Weather Forecast

Advertisements
Track Severe Weather on mobile